createdAt,value
2018-05-06T00:00:05.014Z,68.30
2018-05-06T00:02:31.414Z,68.40
2018-05-06T00:04:58.097Z,67.90
2018-05-06T00:07:24.462Z,67.90
2018-05-06T00:09:50.886Z,67.90
2018-05-06T00:12:17.281Z,68.40
2018-05-06T00:14:43.761Z,68.80
2018-05-06T00:17:10.122Z,68.80
2018-05-06T00:19:36.563Z,69.10
2018-05-06T00:22:02.961Z,70.00
2018-05-06T00:24:29.686Z,70.00
2018-05-06T00:26:56.834Z,69.50
2018-05-06T00:29:23.237Z,69.40
2018-05-06T00:31:49.624Z,69.60
2018-05-06T00:34:16.088Z,69.90
2018-05-06T00:36:42.441Z,69.80
2018-05-06T00:39:09.552Z,70.20
2018-05-06T00:41:35.969Z,69.90
2018-05-06T00:44:02.522Z,70.00
2018-05-06T00:46:28.947Z,70.30
2018-05-06T00:48:55.392Z,70.20
2018-05-06T00:51:21.768Z,70.10
2018-05-06T00:53:48.967Z,69.80
2018-05-06T00:56:15.334Z,69.70
2018-05-06T00:58:42.529Z,69.90
2018-05-06T01:01:08.893Z,69.70
2018-05-06T01:03:35.288Z,69.80
2018-05-06T01:06:02.511Z,70.00
2018-05-06T01:08:28.985Z,69.90
2018-05-06T01:10:55.458Z,70.10
2018-05-06T01:13:21.828Z,70.20
2018-05-06T01:15:48.938Z,70.40
2018-05-06T01:18:15.386Z,71.00
2018-05-06T01:20:41.761Z,70.40
2018-05-06T01:23:08.122Z,70.30
2018-05-06T01:25:34.567Z,70.70
2018-05-06T01:28:00.950Z,71.00
2018-05-06T01:30:28.082Z,71.30
2018-05-06T01:32:54.803Z,71.20
2018-05-06T01:35:21.918Z,71.10
2018-05-06T01:37:48.286Z,71.00
2018-05-06T01:40:14.658Z,71.00
2018-05-06T01:42:41.011Z,71.30
2018-05-06T01:45:08.141Z,71.80
2018-05-06T01:47:34.493Z,71.80
2018-05-06T01:50:00.866Z,71.60
2018-05-06T01:52:27.250Z,71.80
2018-05-06T01:54:58.857Z,72.00
2018-05-06T01:57:25.240Z,72.10
2018-05-06T01:59:51.634Z,72.10
2018-05-06T02:02:18.726Z,72.70
2018-05-06T02:04:45.141Z,72.60
2018-05-06T02:07:11.595Z,72.50
2018-05-06T02:09:38.735Z,72.70
2018-05-06T02:12:05.857Z,72.80
2018-05-06T02:14:32.366Z,72.70
2018-05-06T02:16:58.737Z,72.90
2018-05-06T02:19:25.098Z,73.00
2018-05-06T02:21:51.479Z,73.00
2018-05-06T02:24:18.782Z,72.90
2018-05-06T02:26:45.150Z,72.80
2018-05-06T02:29:12.295Z,73.00
2018-05-06T02:31:38.813Z,72.90
2018-05-06T02:34:05.526Z,73.00
2018-05-06T02:36:31.902Z,73.00
2018-05-06T02:38:58.262Z,72.80
2018-05-06T02:41:24.686Z,73.30
2018-05-06T02:43:51.997Z,73.90
2018-05-06T02:46:18.343Z,73.80
2018-05-06T02:48:44.743Z,73.80
2018-05-06T02:51:11.134Z,74.00
2018-05-06T02:53:38.663Z,74.30
2018-05-06T02:56:05.067Z,74.20
2018-05-06T02:58:31.458Z,74.20
2018-05-06T03:00:58.585Z,75.00
2018-05-06T03:03:25.161Z,75.00
2018-05-06T03:05:51.569Z,75.00
2018-05-06T03:08:18.697Z,75.80
2018-05-06T03:10:45.098Z,75.10
2018-05-06T03:13:11.782Z,74.90
2018-05-06T03:15:38.431Z,75.20
2018-05-06T03:18:05.575Z,75.40
2018-05-06T03:20:32.684Z,75.30
2018-05-06T03:22:59.274Z,75.20
2018-05-06T03:25:25.669Z,75.30
2018-05-06T03:27:52.050Z,75.30
2018-05-06T03:30:18.419Z,75.50
2018-05-06T03:32:44.794Z,75.50
2018-05-06T03:35:11.920Z,75.80
2018-05-06T03:37:38.357Z,75.70
2018-05-06T03:40:04.755Z,75.50
2018-05-06T03:42:31.133Z,75.30
2018-05-06T03:44:57.523Z,75.10
2018-05-06T03:47:23.921Z,74.90
2018-05-06T03:49:50.298Z,75.10
2018-05-06T03:52:16.734Z,75.20
2018-05-06T03:54:43.122Z,75.20
2018-05-06T03:57:21.637Z,75.00
2018-05-06T04:00:00.123Z,74.90
2018-05-06T04:02:30.306Z,75.00
2018-05-06T04:04:56.838Z,74.90
2018-05-06T04:07:23.216Z,74.50
2018-05-06T04:09:51.566Z,74.50
2018-05-06T04:12:17.994Z,74.50
2018-05-06T04:14:44.497Z,74.40
2018-05-06T04:17:10.922Z,74.10
2018-05-06T04:19:37.373Z,74.10
2018-05-06T04:22:04.523Z,74.50
2018-05-06T04:24:31.878Z,74.80
2018-05-06T04:26:58.254Z,74.80
2018-05-06T04:29:24.643Z,74.90
2018-05-06T04:31:51.014Z,75.00
2018-05-06T04:34:17.772Z,74.90
2018-05-06T04:36:44.873Z,74.80
2018-05-06T04:39:11.274Z,74.80
2018-05-06T04:41:37.753Z,74.70
2018-05-06T04:44:05.084Z,74.70
2018-05-06T04:46:31.490Z,74.60
2018-05-06T04:48:58.579Z,74.50
2018-05-06T04:51:24.975Z,74.50
2018-05-06T04:53:51.531Z,74.70
2018-05-06T04:56:17.887Z,75.00
2018-05-06T04:58:45.002Z,75.00
2018-05-06T05:01:11.366Z,74.90
2018-05-06T05:03:37.987Z,75.20
2018-05-06T05:06:04.371Z,74.70
2018-05-06T05:08:30.730Z,74.50
2018-05-06T05:10:57.118Z,74.60
2018-05-06T05:13:23.473Z,74.50
2018-05-06T05:15:50.591Z,74.40
2018-05-06T05:18:16.978Z,74.20
2018-05-06T05:20:43.383Z,74.30
2018-05-06T05:23:10.512Z,73.50
2018-05-06T05:25:36.885Z,73.40
2018-05-06T05:28:03.253Z,73.20
2018-05-06T05:30:29.641Z,73.20
2018-05-06T05:32:56.988Z,73.00
2018-05-06T05:35:23.370Z,73.20
2018-05-06T05:37:50.468Z,73.70
2018-05-06T05:40:17.634Z,73.50
2018-05-06T05:42:44.078Z,73.50
2018-05-06T05:45:10.452Z,73.40
2018-05-06T05:47:36.970Z,73.50
2018-05-06T05:50:03.271Z,73.80
2018-05-06T05:52:29.647Z,72.40
2018-05-06T05:54:56.058Z,72.30
2018-05-06T05:57:22.413Z,72.10
2018-05-06T05:59:48.781Z,71.80
2018-05-06T06:02:15.909Z,69.80
2018-05-06T06:04:42.599Z,69.70
2018-05-06T06:07:08.946Z,69.10
2018-05-06T06:09:35.402Z,68.20
2018-05-06T06:12:01.786Z,67.10
2018-05-06T06:14:28.434Z,66.80
2018-05-06T06:16:54.826Z,65.60
2018-05-06T06:19:21.961Z,63.30
2018-05-06T06:21:48.318Z,63.20
2018-05-06T06:24:14.894Z,62.00
2018-05-06T06:26:41.384Z,61.80
2018-05-06T06:29:07.734Z,60.20
2018-05-06T06:31:34.107Z,59.80
2018-05-06T06:34:00.723Z,59.10
2018-05-06T06:36:27.077Z,58.50
2018-05-06T06:38:53.468Z,57.60
2018-05-06T06:41:19.866Z,57.40
2018-05-06T06:43:46.558Z,55.10
2018-05-06T06:46:12.970Z,54.80
2018-05-06T06:48:39.362Z,54.80
2018-05-06T06:51:05.742Z,54.70
2018-05-06T06:53:32.398Z,54.20
2018-05-06T06:55:58.777Z,53.70
2018-05-06T06:58:25.914Z,52.60
2018-05-06T07:00:52.324Z,52.50
2018-05-06T07:03:18.699Z,51.60
2018-05-06T07:05:45.815Z,50.00
2018-05-06T07:08:12.373Z,50.00
2018-05-06T07:10:39.492Z,48.60
2018-05-06T07:13:05.901Z,48.60
2018-05-06T07:15:32.282Z,48.50
2018-05-06T07:17:58.661Z,47.40
2018-05-06T07:20:25.066Z,48.00
2018-05-06T07:22:52.206Z,49.50
2018-05-06T07:25:19.302Z,48.90
2018-05-06T07:27:46.423Z,47.80
2018-05-06T07:30:13.514Z,47.40
2018-05-06T07:32:39.853Z,47.40
2018-05-06T07:35:06.254Z,47.70
2018-05-06T07:37:32.610Z,48.00
2018-05-06T07:39:58.982Z,46.50
2018-05-06T07:42:26.105Z,46.00
2018-05-06T07:44:52.466Z,45.90
2018-05-06T07:47:19.631Z,46.80
2018-05-06T07:49:46.011Z,46.70
2018-05-06T07:52:12.369Z,47.80
2018-05-06T07:54:39.787Z,46.30
2018-05-06T07:57:06.147Z,46.20
2018-05-06T07:59:32.499Z,45.70
2018-05-06T08:01:58.878Z,45.60
2018-05-06T08:04:25.291Z,45.80
2018-05-06T08:06:51.707Z,45.90
2018-05-06T08:09:18.811Z,45.80
2018-05-06T08:11:45.972Z,45.50
2018-05-06T08:14:12.758Z,45.40
2018-05-06T08:16:39.135Z,46.10
2018-05-06T08:19:05.606Z,45.40
2018-05-06T08:21:32.743Z,44.50
2018-05-06T08:23:59.417Z,44.30
2018-05-06T08:26:25.807Z,43.90
2018-05-06T08:28:52.198Z,44.00
2018-05-06T08:31:18.610Z,44.60
2018-05-06T08:33:45.974Z,45.60
2018-05-06T08:36:12.462Z,45.50
2018-05-06T08:38:38.949Z,45.40
2018-05-06T08:41:05.314Z,44.50
2018-05-06T08:43:31.693Z,44.90
2018-05-06T08:45:58.125Z,44.70
2018-05-06T08:48:24.902Z,44.40
2018-05-06T08:50:52.043Z,43.20
2018-05-06T08:53:19.404Z,42.20
2018-05-06T08:55:45.777Z,42.20
2018-05-06T08:58:12.325Z,42.00
2018-05-06T09:00:39.527Z,41.30
2018-05-06T09:03:06.186Z,41.30
2018-05-06T09:05:32.565Z,40.80
2018-05-06T09:07:58.970Z,40.90
2018-05-06T09:10:26.150Z,40.20
2018-05-06T09:12:52.538Z,40.10
2018-05-06T09:15:18.965Z,39.60
2018-05-06T09:17:46.083Z,39.10
2018-05-06T09:20:12.539Z,39.10
2018-05-06T09:22:38.946Z,39.00
2018-05-06T09:25:05.434Z,39.10
2018-05-06T09:27:31.777Z,38.70
2018-05-06T09:29:58.892Z,37.90
2018-05-06T09:32:25.275Z,37.90
2018-05-06T09:34:51.670Z,38.90
2018-05-06T09:37:18.030Z,38.60
2018-05-06T09:39:44.417Z,38.50
2018-05-06T09:42:10.797Z,38.40
2018-05-06T09:44:37.177Z,38.00
2018-05-06T09:47:03.594Z,38.00
2018-05-06T09:49:30.689Z,39.10
2018-05-06T09:51:57.874Z,36.60
2018-05-06T09:54:24.258Z,36.60
2018-05-06T09:56:50.831Z,36.80
2018-05-06T09:59:17.275Z,37.70
2018-05-06T10:01:43.729Z,38.10
2018-05-06T10:04:10.107Z,38.20
2018-05-06T10:06:37.267Z,37.50
2018-05-06T10:09:04.660Z,37.50
2018-05-06T10:11:31.022Z,38.10
2018-05-06T10:13:58.388Z,37.30
2018-05-06T10:16:24.755Z,36.90
2018-05-06T10:18:51.142Z,35.40
2018-05-06T10:21:17.542Z,35.60
2018-05-06T10:23:43.987Z,35.40
2018-05-06T10:26:10.426Z,35.30
2018-05-06T10:28:37.689Z,36.20
2018-05-06T10:31:04.054Z,36.10
2018-05-06T10:33:31.170Z,35.00
2018-05-06T10:35:57.525Z,35.00
2018-05-06T10:38:24.019Z,36.20
2018-05-06T10:40:51.058Z,35.90
2018-05-06T10:43:17.498Z,35.80
2018-05-06T10:45:44.032Z,34.30
2018-05-06T10:48:10.410Z,33.90
2018-05-06T10:50:37.522Z,35.90
2018-05-06T10:53:03.955Z,35.90
2018-05-06T10:55:30.317Z,36.20
2018-05-06T10:57:56.755Z,36.40
2018-05-06T11:00:23.141Z,36.30
2018-05-06T11:02:49.592Z,35.40
2018-05-06T11:05:16.723Z,34.80
2018-05-06T11:07:43.226Z,34.80
2018-05-06T11:10:09.637Z,35.00
2018-05-06T11:12:36.749Z,35.40
2018-05-06T11:15:03.138Z,35.30
2018-05-06T11:17:29.497Z,34.20
2018-05-06T11:19:55.818Z,33.20
2018-05-06T11:22:22.170Z,34.80
2018-05-06T11:24:48.686Z,34.20
2018-05-06T11:27:15.092Z,34.60
2018-05-06T11:29:42.225Z,33.20
2018-05-06T11:32:08.645Z,33.20
2018-05-06T11:34:35.058Z,35.00
2018-05-06T11:37:01.428Z,33.20
2018-05-06T11:39:28.574Z,33.70
2018-05-06T11:41:54.926Z,33.70
2018-05-06T11:44:22.026Z,33.30
2018-05-06T11:46:48.469Z,33.30
2018-05-06T11:49:14.816Z,33.20
2018-05-06T11:51:41.189Z,33.30
2018-05-06T11:54:07.631Z,32.60
2018-05-06T11:56:34.026Z,32.70
2018-05-06T11:59:01.121Z,32.30
2018-05-06T12:01:27.531Z,32.20
2018-05-06T12:03:54.072Z,32.90
2018-05-06T12:06:20.493Z,33.10
2018-05-06T12:08:47.590Z,32.10
2018-05-06T12:11:14.075Z,32.20
2018-05-06T12:13:40.506Z,31.60
2018-05-06T12:16:06.928Z,32.30
2018-05-06T12:18:34.034Z,30.00
2018-05-06T12:21:00.406Z,30.00
2018-05-06T12:23:27.591Z,31.00
2018-05-06T12:25:53.957Z,31.00
2018-05-06T12:28:20.370Z,30.00
2018-05-06T12:30:46.749Z,30.30
2018-05-06T12:33:14.235Z,30.90
2018-05-06T12:35:40.633Z,30.80
2018-05-06T12:38:07.001Z,30.80
2018-05-06T12:40:33.397Z,30.00
2018-05-06T12:42:59.866Z,30.10
2018-05-06T12:45:26.208Z,30.20
2018-05-06T12:47:52.682Z,30.50
2018-05-06T12:50:19.106Z,29.70
2018-05-06T12:52:45.571Z,30.20
2018-05-06T12:55:12.741Z,30.00
2018-05-06T12:57:39.126Z,30.00
2018-05-06T13:00:05.541Z,29.50
2018-05-06T13:02:31.930Z,29.30
2018-05-06T13:04:59.073Z,28.70
2018-05-06T13:07:26.173Z,28.90
2018-05-06T13:09:52.549Z,28.90
2018-05-06T13:12:19.715Z,28.80
2018-05-06T13:14:46.817Z,29.80
2018-05-06T13:17:13.192Z,29.80
2018-05-06T13:19:40.293Z,29.60
2018-05-06T13:22:06.733Z,29.60
2018-05-06T13:24:33.215Z,29.80
2018-05-06T13:26:59.771Z,30.10
2018-05-06T13:29:26.157Z,30.50
2018-05-06T13:31:52.598Z,29.30
2018-05-06T13:34:19.726Z,30.40
2018-05-06T13:36:46.150Z,30.30
2018-05-06T13:39:12.510Z,30.30
2018-05-06T13:41:39.618Z,30.10
2018-05-06T13:44:06.049Z,30.00
2018-05-06T13:46:32.473Z,30.90
2018-05-06T13:48:58.894Z,31.40
2018-05-06T13:51:25.286Z,31.30
2018-05-06T13:53:51.885Z,31.90
2018-05-06T13:56:18.301Z,32.90
2018-05-06T13:58:45.410Z,33.20
2018-05-06T14:01:12.544Z,33.10
2018-05-06T14:03:39.259Z,33.00
2018-05-06T14:06:05.662Z,33.00
2018-05-06T14:08:32.021Z,32.80
2018-05-06T14:10:58.390Z,33.50
2018-05-06T14:13:25.060Z,33.40
2018-05-06T14:15:51.502Z,35.30
2018-05-06T14:18:17.904Z,34.30
2018-05-06T14:20:44.317Z,34.00
2018-05-06T14:23:10.914Z,34.60
2018-05-06T14:25:37.321Z,34.80
2018-05-06T14:28:03.762Z,34.90
2018-05-06T14:30:30.130Z,34.90
2018-05-06T14:32:56.739Z,34.70
2018-05-06T14:35:23.133Z,35.20
2018-05-06T14:37:50.260Z,35.40
2018-05-06T14:40:17.450Z,34.80
2018-05-06T14:42:43.902Z,34.80
2018-05-06T14:45:10.626Z,35.30
2018-05-06T14:47:49.174Z,36.30
2018-05-06T14:50:15.673Z,36.50
2018-05-06T14:52:42.798Z,35.60
2018-05-06T14:55:09.411Z,35.50
2018-05-06T14:57:36.789Z,35.70
2018-05-06T15:00:03.205Z,35.70
2018-05-06T15:02:29.568Z,35.60
2018-05-06T15:04:56.764Z,35.50
2018-05-06T15:07:23.267Z,35.50
2018-05-06T15:09:50.372Z,36.00
2018-05-06T15:12:16.754Z,36.00
2018-05-06T15:14:43.197Z,37.00
2018-05-06T15:17:09.620Z,36.80
2018-05-06T15:19:35.989Z,36.80
2018-05-06T15:22:02.403Z,35.60
2018-05-06T15:24:29.346Z,33.60
2018-05-06T15:29:36.774Z,33.20
2018-05-06T15:32:03.146Z,33.10
2018-05-06T15:34:29.566Z,33.90
2018-05-06T15:36:55.945Z,34.00
2018-05-06T15:39:22.341Z,33.70
2018-05-06T15:41:48.757Z,34.10
2018-05-06T15:44:15.605Z,33.30
2018-05-06T15:46:41.998Z,33.40
2018-05-06T15:49:08.482Z,33.20
2018-05-06T15:51:34.934Z,33.00
2018-05-06T15:54:02.266Z,33.20
2018-05-06T15:56:28.671Z,33.10
2018-05-06T15:58:55.085Z,32.10
2018-05-06T16:01:21.647Z,32.70
2018-05-06T16:04:00.576Z,32.90
2018-05-06T16:06:26.992Z,32.20
2018-05-06T16:08:53.350Z,32.10
2018-05-06T16:11:19.778Z,32.40
2018-05-06T16:13:47.656Z,32.80
2018-05-06T16:16:14.066Z,32.80
2018-05-06T16:18:40.418Z,32.50
2018-05-06T16:21:06.777Z,33.70
2018-05-06T16:23:33.241Z,32.60
2018-05-06T16:25:59.618Z,32.50
2018-05-06T16:28:26.008Z,32.40
2018-05-06T16:30:52.424Z,32.70
2018-05-06T16:33:19.077Z,33.90
2018-05-06T16:35:45.459Z,33.80
2018-05-06T16:38:11.821Z,33.20
2018-05-06T16:40:38.314Z,32.50
2018-05-06T16:43:04.909Z,33.40
2018-05-06T16:45:31.330Z,33.10
2018-05-06T16:47:57.697Z,32.90
2018-05-06T16:50:24.270Z,33.70
2018-05-06T16:52:51.418Z,34.00
2018-05-06T16:55:18.560Z,33.50
2018-05-06T16:57:44.957Z,33.50
2018-05-06T17:00:11.386Z,32.60
2018-05-06T17:02:37.762Z,33.70
2018-05-06T17:05:04.953Z,32.00
2018-05-06T17:07:31.362Z,31.90
2018-05-06T17:09:58.461Z,31.90
2018-05-06T17:12:24.845Z,31.80
2018-05-06T17:14:52.214Z,33.30
2018-05-06T17:17:18.877Z,33.20
2018-05-06T17:19:45.255Z,33.40
2018-05-06T17:22:12.378Z,32.90
2018-05-06T17:24:39.098Z,32.80
2018-05-06T17:27:05.494Z,33.10
2018-05-06T17:29:32.641Z,33.50
2018-05-06T17:31:59.794Z,33.70
2018-05-06T17:34:26.946Z,33.70
2018-05-06T17:36:54.058Z,33.80
2018-05-06T17:39:20.461Z,33.80
2018-05-06T17:41:46.919Z,33.50
2018-05-06T17:44:13.309Z,33.20
2018-05-06T17:46:39.709Z,33.70
2018-05-06T17:49:06.890Z,33.20
2018-05-06T17:51:33.325Z,33.20
2018-05-06T17:53:59.698Z,33.60
2018-05-06T17:56:26.070Z,33.70
2018-05-06T17:58:53.346Z,34.50
2018-05-06T18:01:19.789Z,34.50
2018-05-06T18:03:46.182Z,34.90
2018-05-06T18:06:12.593Z,34.70
2018-05-06T18:08:38.957Z,34.70
2018-05-06T18:11:05.338Z,35.50
2018-05-06T18:13:31.753Z,35.60
2018-05-06T18:15:58.133Z,35.50
2018-05-06T18:18:25.253Z,35.80
2018-05-06T18:20:51.754Z,35.70
2018-05-06T18:23:18.402Z,36.10
2018-05-06T18:25:44.778Z,36.20
2018-05-06T18:28:11.182Z,36.60
2018-05-06T18:30:37.538Z,36.40
2018-05-06T18:33:04.275Z,36.70
2018-05-06T18:35:30.703Z,36.30
2018-05-06T18:37:57.093Z,36.60
2018-05-06T18:40:23.489Z,36.50
2018-05-06T18:42:50.682Z,37.50
2018-05-06T18:45:17.146Z,37.50
2018-05-06T18:47:43.538Z,37.30
2018-05-06T18:50:09.921Z,38.10
2018-05-06T18:52:36.320Z,37.60
2018-05-06T18:55:02.771Z,37.70
2018-05-06T18:57:29.118Z,37.80
2018-05-06T18:59:55.526Z,38.20
2018-05-06T19:02:21.909Z,38.40
2018-05-06T19:04:48.758Z,38.60
2018-05-06T19:07:16.022Z,38.60
2018-05-06T19:09:42.408Z,38.60
2018-05-06T19:12:08.837Z,38.30
2018-05-06T19:14:36.245Z,38.90
2018-05-06T19:17:03.231Z,38.40
2018-05-06T19:19:29.625Z,38.20
2018-05-06T19:21:55.966Z,38.10
2018-05-06T19:24:22.376Z,38.70
2018-05-06T19:26:49.496Z,38.50
2018-05-06T19:29:15.921Z,38.40
2018-05-06T19:31:42.302Z,37.70
2018-05-06T19:34:09.203Z,37.10
2018-05-06T19:36:36.534Z,37.90
2018-05-06T19:39:02.983Z,38.30
2018-05-06T19:41:29.366Z,38.00
2018-05-06T19:43:55.757Z,37.80
2018-05-06T19:46:22.224Z,37.10
2018-05-06T19:48:48.841Z,37.20
2018-05-06T19:51:15.934Z,36.70
2018-05-06T19:53:42.329Z,36.70
2018-05-06T19:56:09.478Z,37.20
2018-05-06T19:58:36.595Z,37.30
2018-05-06T20:01:02.985Z,37.30
2018-05-06T20:03:29.465Z,37.40
2018-05-06T20:05:55.910Z,37.00
2018-05-06T20:08:23.021Z,38.00
2018-05-06T20:10:49.377Z,37.90
2018-05-06T20:13:16.545Z,37.40
2018-05-06T20:15:42.909Z,37.40
2018-05-06T20:18:09.345Z,38.20
2018-05-06T20:20:35.722Z,37.30
2018-05-06T20:23:02.099Z,37.00
2018-05-06T20:25:28.474Z,37.50
2018-05-06T20:27:54.874Z,38.00
2018-05-06T20:30:21.261Z,38.60
2018-05-06T20:32:47.690Z,38.60
2018-05-06T20:35:14.362Z,39.30
2018-05-06T20:37:40.730Z,38.80
2018-05-06T20:40:07.110Z,39.00
2018-05-06T20:42:34.218Z,38.80
2018-05-06T20:45:00.818Z,38.80
2018-05-06T20:47:27.349Z,39.10
2018-05-06T20:49:54.481Z,38.80
2018-05-06T20:52:20.861Z,38.80
2018-05-06T20:54:47.277Z,39.20
2018-05-06T20:57:13.638Z,38.50
2018-05-06T20:59:40.044Z,39.20
2018-05-06T21:02:06.430Z,40.00
2018-05-06T21:04:33.117Z,40.60
2018-05-06T21:06:59.489Z,40.80
2018-05-06T21:09:26.010Z,40.60
2018-05-06T21:11:52.536Z,41.00
2018-05-06T21:14:18.977Z,41.10
2018-05-06T21:16:45.382Z,41.60
2018-05-06T21:19:11.779Z,41.80
2018-05-06T21:21:38.237Z,41.40
2018-05-06T21:24:04.678Z,41.20
2018-05-06T21:26:46.003Z,41.10
2018-05-06T21:29:12.391Z,41.30
2018-05-06T21:31:38.850Z,41.70
2018-05-06T21:34:05.407Z,42.30
2018-05-06T21:36:31.786Z,42.60
2018-05-06T21:38:58.202Z,42.30
2018-05-06T21:41:24.625Z,42.70
2018-05-06T21:43:52.809Z,43.20
2018-05-06T21:46:19.982Z,43.00
2018-05-06T21:48:46.463Z,43.00
2018-05-06T21:51:13.543Z,43.50
2018-05-06T21:53:40.116Z,43.90
2018-05-06T21:56:06.601Z,43.80
2018-05-06T21:58:32.949Z,43.80
2018-05-06T22:00:59.318Z,43.40
2018-05-06T22:03:26.082Z,43.40
2018-05-06T22:05:52.492Z,43.40
2018-05-06T22:08:19.049Z,43.30
2018-05-06T22:10:46.179Z,43.80
2018-05-06T22:13:12.719Z,43.80
2018-05-06T22:15:39.134Z,43.80
2018-05-06T22:18:05.509Z,44.10
2018-05-06T22:20:31.850Z,43.80
2018-05-06T22:22:58.293Z,44.00
2018-05-06T22:25:24.693Z,44.40
2018-05-06T22:27:51.189Z,44.60
2018-05-06T22:30:17.786Z,44.60
2018-05-06T22:32:44.537Z,44.60
2018-05-06T22:35:11.718Z,45.10
2018-05-06T22:37:38.151Z,44.70
2018-05-06T22:40:04.504Z,44.40
2018-05-06T22:42:30.871Z,44.10
2018-05-06T22:44:57.260Z,44.50
2018-05-06T22:47:23.660Z,45.00
2018-05-06T22:49:50.842Z,45.00
2018-05-06T22:52:17.194Z,44.90
2018-05-06T22:54:43.522Z,45.00
2018-05-06T22:57:09.961Z,45.00
2018-05-06T22:59:36.385Z,45.20
2018-05-06T23:02:02.722Z,44.90
2018-05-06T23:04:29.286Z,44.90
2018-05-06T23:06:55.661Z,45.00
2018-05-06T23:09:21.970Z,45.00
2018-05-06T23:11:49.073Z,46.00
2018-05-06T23:14:15.445Z,45.90
2018-05-06T23:16:41.783Z,45.90
2018-05-06T23:19:08.118Z,46.30
2018-05-06T23:21:35.254Z,47.40
2018-05-06T23:24:01.576Z,47.40
2018-05-06T23:26:28.063Z,48.10
2018-05-06T23:28:55.162Z,49.00
2018-05-06T23:31:21.609Z,48.90
2018-05-06T23:33:48.461Z,49.40
2018-05-06T23:36:14.799Z,49.60
2018-05-06T23:38:41.123Z,50.30
2018-05-06T23:41:07.453Z,50.50
2018-05-06T23:43:33.885Z,50.70
2018-05-06T23:46:00.211Z,50.40
2018-05-06T23:48:26.537Z,50.70
2018-05-06T23:50:53.657Z,50.60
2018-05-06T23:53:20.538Z,50.60
2018-05-06T23:55:46.869Z,50.90
2018-05-06T23:58:13.233Z,51.60
